createdAt,value
2019-03-22T00:01:30.872Z,3.50
2019-03-22T00:04:05.897Z,3.80
2019-03-22T00:06:40.999Z,3.40
2019-03-22T00:09:21.467Z,3.70
2019-03-22T00:11:56.665Z,3.70
2019-03-22T00:14:32.664Z,3.15
2019-03-22T00:17:08.595Z,3.65
2019-03-22T00:19:45.156Z,3.87
2019-03-22T00:22:22.501Z,3.50
2019-03-22T00:24:58.301Z,3.77
2019-03-22T00:27:33.544Z,4.00
2019-03-22T00:30:09.535Z,4.00
2019-03-22T00:32:44.750Z,3.65
2019-03-22T00:35:20.032Z,4.10
2019-03-22T00:37:55.640Z,4.12
2019-03-22T00:40:32.060Z,3.70
2019-03-22T00:43:07.074Z,3.35
2019-03-22T00:45:42.730Z,3.80
2019-03-22T00:48:17.769Z,3.67
2019-03-22T00:50:53.300Z,3.60
2019-03-22T00:53:28.617Z,3.20
2019-03-22T00:56:03.426Z,3.72
2019-03-22T00:58:39.683Z,3.92
2019-03-22T01:01:14.563Z,4.22
2019-03-22T01:03:51.012Z,4.47
2019-03-22T01:06:26.467Z,5.55
2019-03-22T01:09:02.127Z,5.80
2019-03-22T01:11:37.213Z,6.83
2019-03-22T01:14:12.495Z,7.50
2019-03-22T01:16:47.750Z,7.93
2019-03-22T01:19:22.882Z,9.38
2019-03-22T01:21:57.766Z,11.68
2019-03-22T01:24:33.202Z,13.38
2019-03-22T01:27:08.559Z,12.15
2019-03-22T01:29:44.097Z,12.90
2019-03-22T01:32:19.069Z,11.93
2019-03-22T01:34:53.745Z,12.07
2019-03-22T01:37:29.261Z,12.45
2019-03-22T01:40:03.922Z,11.67
2019-03-22T01:42:39.454Z,11.85
2019-03-22T01:45:15.692Z,11.78
2019-03-22T01:47:50.711Z,10.45
2019-03-22T01:50:25.987Z,10.78
2019-03-22T01:53:01.042Z,13.00
2019-03-22T01:55:36.609Z,13.48
2019-03-22T01:58:11.818Z,12.60
2019-03-22T02:00:47.122Z,12.43
2019-03-22T02:03:22.427Z,12.67
2019-03-22T02:05:58.757Z,12.15
2019-03-22T02:08:36.045Z,11.30
2019-03-22T02:11:12.012Z,11.60
2019-03-22T02:13:47.326Z,10.47
2019-03-22T02:16:22.151Z,10.37
2019-03-22T02:18:57.220Z,9.53
2019-03-22T02:21:33.356Z,9.78
2019-03-22T02:24:08.372Z,9.80
2019-03-22T02:26:45.028Z,8.97
2019-03-22T02:29:19.963Z,10.35
2019-03-22T02:31:56.284Z,10.15
2019-03-22T02:34:31.559Z,10.73
2019-03-22T02:37:07.081Z,10.18
2019-03-22T02:39:42.336Z,9.67
2019-03-22T02:42:18.722Z,9.80
2019-03-22T02:44:54.051Z,9.50
2019-03-22T02:47:30.326Z,9.23
2019-03-22T02:50:17.269Z,9.53
2019-03-22T02:52:43.293Z,9.13
2019-03-22T02:55:18.648Z,9.53
2019-03-22T02:57:53.280Z,9.25
2019-03-22T03:00:28.607Z,8.98
2019-03-22T03:03:04.390Z,8.80
2019-03-22T03:05:40.607Z,8.97
2019-03-22T03:08:15.341Z,8.60
2019-03-22T03:10:51.557Z,8.77
2019-03-22T03:13:26.210Z,8.28
2019-03-22T03:16:01.294Z,8.97
2019-03-22T03:18:36.360Z,8.93
2019-03-22T03:21:13.080Z,8.47
2019-03-22T03:23:49.745Z,8.93
2019-03-22T03:26:25.003Z,9.08
2019-03-22T03:29:03.011Z,9.25
2019-03-22T03:31:38.229Z,9.28
2019-03-22T03:34:14.410Z,9.58
2019-03-22T03:36:51.608Z,9.03
2019-03-22T03:39:26.502Z,9.10
2019-03-22T03:42:02.852Z,9.15
2019-03-22T03:44:37.954Z,9.00
2019-03-22T03:47:14.239Z,9.58
2019-03-22T03:49:49.339Z,9.65
2019-03-22T03:52:24.335Z,9.75
2019-03-22T03:54:59.947Z,10.08
2019-03-22T03:57:35.257Z,9.67
2019-03-22T04:00:10.408Z,10.28
2019-03-22T04:02:45.551Z,9.70
2019-03-22T04:05:20.527Z,10.50
2019-03-22T04:07:58.358Z,9.18
2019-03-22T04:10:33.932Z,10.08
2019-03-22T04:13:09.320Z,10.13
2019-03-22T04:15:45.582Z,10.35
2019-03-22T04:18:21.269Z,9.90
2019-03-22T04:20:56.300Z,9.83
2019-03-22T04:23:31.447Z,9.98
2019-03-22T04:26:06.686Z,10.20
2019-03-22T04:28:41.307Z,10.20
2019-03-22T04:31:16.824Z,9.73
2019-03-22T04:33:51.978Z,9.40
2019-03-22T04:36:27.025Z,9.67
2019-03-22T04:39:03.200Z,10.55
2019-03-22T04:41:39.818Z,10.05
2019-03-22T04:44:14.825Z,9.28
2019-03-22T04:46:50.603Z,9.13
2019-03-22T04:49:29.222Z,9.23
2019-03-22T04:52:04.302Z,9.03
2019-03-22T04:54:39.460Z,8.68
2019-03-22T04:57:14.979Z,9.40
2019-03-22T04:59:50.031Z,9.23
2019-03-22T05:02:25.350Z,9.75
2019-03-22T05:05:00.174Z,9.20
2019-03-22T05:07:36.582Z,9.43
2019-03-22T05:10:11.355Z,8.45
2019-03-22T05:12:49.720Z,8.75
2019-03-22T05:15:26.461Z,8.60
2019-03-22T05:18:02.786Z,8.30
2019-03-22T05:20:37.604Z,8.93
2019-03-22T05:23:12.549Z,8.60
2019-03-22T05:25:48.630Z,8.38
2019-03-22T05:28:24.695Z,8.15
2019-03-22T05:31:50.331Z,8.33
2019-03-22T05:34:26.031Z,7.92
2019-03-22T05:37:01.662Z,8.43
2019-03-22T05:39:36.524Z,7.83
2019-03-22T05:42:11.864Z,8.28
2019-03-22T05:44:47.109Z,8.08
2019-03-22T05:47:23.375Z,8.20
2019-03-22T05:49:59.918Z,8.70
2019-03-22T05:52:35.029Z,8.28
2019-03-22T05:55:12.666Z,8.15
2019-03-22T05:57:48.876Z,8.68
2019-03-22T06:00:24.190Z,8.08
2019-03-22T06:02:59.447Z,8.30
2019-03-22T06:05:34.654Z,8.55
2019-03-22T06:08:11.948Z,9.23
2019-03-22T06:10:47.108Z,9.55
2019-03-22T06:13:22.920Z,9.00
2019-03-22T06:15:59.222Z,8.68
2019-03-22T06:18:34.180Z,9.20
2019-03-22T06:21:09.287Z,9.30
2019-03-22T06:23:44.568Z,8.93
2019-03-22T06:26:19.172Z,9.30
2019-03-22T06:28:54.638Z,8.55
2019-03-22T06:34:13.030Z,9.28
2019-03-22T06:36:48.353Z,9.03
2019-03-22T06:39:23.538Z,8.90
2019-03-22T06:42:02.801Z,9.35
2019-03-22T06:44:37.116Z,9.28
2019-03-22T06:47:12.776Z,9.10
2019-03-22T06:49:48.130Z,8.75
2019-03-22T06:52:24.407Z,10.15
2019-03-22T06:55:00.601Z,9.30
2019-03-22T06:57:36.068Z,9.48
2019-03-22T07:00:12.903Z,9.77
2019-03-22T07:02:49.046Z,9.08
2019-03-22T07:05:25.184Z,9.45
2019-03-22T07:08:00.526Z,9.20
2019-03-22T07:10:35.546Z,8.98
2019-03-22T07:13:10.842Z,8.85
2019-03-22T07:15:45.951Z,8.85
2019-03-22T07:18:23.359Z,8.88
2019-03-22T07:20:59.184Z,9.40
2019-03-22T07:23:35.495Z,9.18
2019-03-22T07:26:10.513Z,9.28
2019-03-22T07:28:45.756Z,9.83
2019-03-22T07:31:21.027Z,9.60
2019-03-22T07:33:56.032Z,9.88
2019-03-22T07:36:34.143Z,9.25
2019-03-22T07:39:14.373Z,8.60
2019-03-22T07:41:50.749Z,8.88
2019-03-22T07:44:26.225Z,8.35
2019-03-22T07:47:01.277Z,8.67
2019-03-22T07:49:38.248Z,9.40
2019-03-22T07:52:14.597Z,8.90
2019-03-22T07:54:49.894Z,9.13
2019-03-22T07:57:25.291Z,9.00
2019-03-22T08:00:01.656Z,8.98
2019-03-22T08:02:36.543Z,9.08
2019-03-22T08:05:12.497Z,9.13
2019-03-22T08:07:47.725Z,8.28
2019-03-22T08:10:23.158Z,10.10
2019-03-22T08:12:58.794Z,9.23
2019-03-22T08:15:37.448Z,9.43
2019-03-22T08:18:12.576Z,9.28
2019-03-22T08:20:49.588Z,9.50
2019-03-22T08:23:27.592Z,8.23
2019-03-22T08:26:02.727Z,8.60
2019-03-22T08:28:37.971Z,8.25
2019-03-22T08:31:13.095Z,8.85
2019-03-22T08:33:48.536Z,9.20
2019-03-22T08:36:23.968Z,9.48
2019-03-22T08:39:00.803Z,8.85
2019-03-22T08:41:36.085Z,9.48
2019-03-22T08:44:11.139Z,8.85
2019-03-22T08:46:46.206Z,8.90
2019-03-22T08:49:21.531Z,9.23
2019-03-22T08:51:56.537Z,8.90
2019-03-22T08:54:31.350Z,8.58
2019-03-22T08:57:06.934Z,8.68
2019-03-22T08:59:41.743Z,9.00
2019-03-22T09:02:16.871Z,9.35
2019-03-22T09:04:52.612Z,8.53
2019-03-22T09:07:27.662Z,9.18
2019-03-22T09:10:02.977Z,8.53
2019-03-22T09:12:38.257Z,8.73
2019-03-22T09:15:13.841Z,8.50
2019-03-22T09:17:48.805Z,8.73
2019-03-22T09:20:23.792Z,8.43
2019-03-22T09:22:58.999Z,8.58
2019-03-22T09:25:46.638Z,7.58
2019-03-22T09:28:22.158Z,7.65
2019-03-22T09:31:09.408Z,7.67
2019-03-22T09:33:34.428Z,8.18
2019-03-22T09:36:09.637Z,8.90
2019-03-22T09:38:45.151Z,7.87
2019-03-22T09:41:20.768Z,7.85
2019-03-22T09:43:55.929Z,8.60
2019-03-22T09:46:31.406Z,8.68
2019-03-22T09:49:06.463Z,8.35
2019-03-22T09:51:42.804Z,8.53
2019-03-22T09:54:17.852Z,8.90
2019-03-22T09:56:53.393Z,8.75
2019-03-22T09:59:28.426Z,9.63
2019-03-22T10:02:03.314Z,9.10
2019-03-22T10:04:38.882Z,9.20
2019-03-22T10:07:14.562Z,9.80
2019-03-22T10:09:49.477Z,8.30
2019-03-22T10:12:24.832Z,8.65
2019-03-22T10:15:00.445Z,8.18
2019-03-22T10:17:35.779Z,8.75
2019-03-22T10:20:10.817Z,8.40
2019-03-22T10:22:48.559Z,8.18
2019-03-22T10:25:23.789Z,9.00
2019-03-22T10:27:58.779Z,8.48
2019-03-22T10:30:34.016Z,8.28
2019-03-22T10:33:21.797Z,8.23
2019-03-22T10:35:45.712Z,8.18
2019-03-22T10:38:30.815Z,8.10
2019-03-22T10:40:57.743Z,8.40
2019-03-22T10:43:34.461Z,7.72
2019-03-22T10:46:09.715Z,7.87
2019-03-22T10:48:45.187Z,8.25
2019-03-22T10:51:21.554Z,8.38
2019-03-22T10:53:57.194Z,8.03
2019-03-22T10:56:32.359Z,7.90
2019-03-22T10:59:07.272Z,8.53
2019-03-22T11:01:52.190Z,8.45
2019-03-22T11:04:19.220Z,8.53
2019-03-22T11:06:54.903Z,8.18
2019-03-22T11:09:30.521Z,7.97
2019-03-22T11:12:12.157Z,7.55
2019-03-22T11:14:42.408Z,8.85
2019-03-22T11:17:17.735Z,8.23
2019-03-22T11:19:52.743Z,7.90
2019-03-22T11:22:27.607Z,9.28
2019-03-22T11:25:04.865Z,8.48
2019-03-22T11:27:40.687Z,8.73
2019-03-22T11:30:18.374Z,8.55
2019-03-22T11:32:54.530Z,8.13
2019-03-22T11:35:29.739Z,8.35
2019-03-22T11:38:05.625Z,9.10
2019-03-22T11:40:40.995Z,8.20
2019-03-22T11:43:16.532Z,8.33
2019-03-22T11:45:51.920Z,8.63
2019-03-22T11:48:30.744Z,8.25
2019-03-22T11:51:06.671Z,8.15
2019-03-22T11:53:42.172Z,8.85
2019-03-22T11:56:17.286Z,8.75
2019-03-22T11:58:53.474Z,8.75
2019-03-22T12:01:28.696Z,8.63
2019-03-22T12:04:03.983Z,8.93
2019-03-22T12:06:40.950Z,8.95
2019-03-22T12:09:16.186Z,8.40
2019-03-22T12:11:51.831Z,8.80
2019-03-22T12:14:27.453Z,8.95
2019-03-22T12:17:03.316Z,9.08
2019-03-22T12:19:39.052Z,8.05
2019-03-22T12:22:14.430Z,9.33
2019-03-22T12:24:49.638Z,9.17
2019-03-22T12:27:25.295Z,8.98
2019-03-22T12:30:00.697Z,9.20
2019-03-22T12:32:35.802Z,8.95
2019-03-22T12:35:14.538Z,9.55
2019-03-22T12:37:49.008Z,8.70
2019-03-22T12:40:24.333Z,8.75
2019-03-22T12:42:59.827Z,8.40
2019-03-22T12:45:35.959Z,8.55
2019-03-22T12:48:12.655Z,8.58
2019-03-22T12:50:49.754Z,8.45
2019-03-22T12:53:24.699Z,8.40
2019-03-22T12:55:59.768Z,8.20
2019-03-22T12:58:36.595Z,8.05
2019-03-22T13:01:11.720Z,7.85
2019-03-22T13:03:46.943Z,8.05
2019-03-22T13:06:22.254Z,7.65
2019-03-22T13:08:57.343Z,7.65
2019-03-22T13:11:33.644Z,7.47
2019-03-22T13:14:08.625Z,7.20
2019-03-22T13:16:45.540Z,8.05
2019-03-22T13:19:21.566Z,7.15
2019-03-22T13:21:58.281Z,7.28
2019-03-22T13:24:33.211Z,7.45
2019-03-22T13:27:14.273Z,7.60
2019-03-22T13:29:50.347Z,7.35
2019-03-22T13:32:25.657Z,7.67
2019-03-22T13:35:00.887Z,7.55
2019-03-22T13:37:35.892Z,7.47
2019-03-22T13:40:11.788Z,6.92
2019-03-22T13:42:49.016Z,7.45
2019-03-22T13:45:24.200Z,6.83
2019-03-22T13:48:01.543Z,7.77
2019-03-22T13:50:41.558Z,7.83
2019-03-22T13:53:20.121Z,7.50
2019-03-22T13:55:58.179Z,7.55
2019-03-22T13:58:38.627Z,7.67
2019-03-22T14:01:15.285Z,7.95
2019-03-22T14:03:51.669Z,7.42
2019-03-22T14:06:27.544Z,7.92
2019-03-22T14:09:04.195Z,7.95
2019-03-22T14:11:44.472Z,8.33
2019-03-22T14:14:22.403Z,8.15
2019-03-22T14:16:58.833Z,8.48
2019-03-22T14:19:39.349Z,8.35
2019-03-22T14:22:16.154Z,7.78
2019-03-22T14:24:51.449Z,8.08
2019-03-22T14:27:33.103Z,8.48
2019-03-22T14:30:10.239Z,8.90
2019-03-22T14:32:47.659Z,8.80
2019-03-22T14:35:25.801Z,9.05
2019-03-22T14:38:01.546Z,9.30
2019-03-22T14:40:39.106Z,9.18
2019-03-22T14:43:14.405Z,10.45
2019-03-22T14:45:49.635Z,9.20
2019-03-22T14:48:24.450Z,9.80
2019-03-22T14:50:59.608Z,11.40
2019-03-22T14:53:34.813Z,10.48
2019-03-22T14:56:09.880Z,10.20
2019-03-22T14:58:45.469Z,10.90
2019-03-22T15:01:20.922Z,10.90
2019-03-22T15:03:59.723Z,11.15
2019-03-22T15:06:35.608Z,11.75
2019-03-22T15:09:11.712Z,11.55
2019-03-22T15:11:47.344Z,11.05
2019-03-22T15:14:38.682Z,11.65
2019-03-22T15:17:40.400Z,11.53
2019-03-22T15:20:48.765Z,12.03
2019-03-22T15:24:03.165Z,12.60
2019-03-22T15:26:51.267Z,12.53
2019-03-22T15:29:54.777Z,11.93
2019-03-22T15:32:53.873Z,12.88
2019-03-22T15:35:46.639Z,11.57
2019-03-22T15:38:46.231Z,12.80
2019-03-22T15:41:21.922Z,12.58
2019-03-22T15:43:56.792Z,13.03
2019-03-22T15:46:31.876Z,12.93
2019-03-22T15:49:07.329Z,12.80
2019-03-22T15:51:42.664Z,13.22
2019-03-22T15:54:18.172Z,12.25
2019-03-22T15:56:53.773Z,13.08
2019-03-22T15:59:28.853Z,13.22
2019-03-22T16:02:04.238Z,12.80
2019-03-22T16:04:39.727Z,12.50
2019-03-22T16:07:18.108Z,12.58
2019-03-22T16:09:53.350Z,12.73
2019-03-22T16:12:28.145Z,12.65
2019-03-22T16:15:03.457Z,12.00
2019-03-22T16:17:38.455Z,11.97
2019-03-22T16:20:13.807Z,11.80
2019-03-22T16:22:49.292Z,12.03
2019-03-22T16:25:24.327Z,12.40
2019-03-22T16:27:59.813Z,12.15
2019-03-22T16:30:34.952Z,12.15
2019-03-22T16:33:09.997Z,11.97
2019-03-22T16:35:45.348Z,11.97
2019-03-22T16:38:21.140Z,12.40
2019-03-22T16:40:56.558Z,12.03
2019-03-22T16:43:31.910Z,12.45
2019-03-22T16:46:07.367Z,12.43
2019-03-22T16:48:42.542Z,12.58
2019-03-22T16:51:19.500Z,12.82
2019-03-22T16:53:54.535Z,12.18
2019-03-22T16:56:31.290Z,12.00
2019-03-22T16:59:06.897Z,11.53
2019-03-22T17:01:42.126Z,12.50
2019-03-22T17:04:17.969Z,11.53
2019-03-22T17:06:53.480Z,12.85
2019-03-22T17:09:28.655Z,13.08
2019-03-22T17:12:04.621Z,12.85
2019-03-22T17:14:40.175Z,12.58
2019-03-22T17:17:15.821Z,12.97
2019-03-22T17:19:52.656Z,11.88
2019-03-22T17:22:30.539Z,13.20
2019-03-22T17:25:08.061Z,12.80
2019-03-22T17:27:43.592Z,12.68
2019-03-22T17:30:29.006Z,12.75
2019-03-22T17:33:10.832Z,12.30
2019-03-22T17:35:48.283Z,13.18
2019-03-22T17:38:24.894Z,12.85
2019-03-22T17:41:02.233Z,13.28
2019-03-22T17:43:39.164Z,12.53
2019-03-22T17:46:15.413Z,12.55
2019-03-22T17:48:57.208Z,12.70
2019-03-22T17:51:32.788Z,12.55
2019-03-22T17:54:08.941Z,13.48
2019-03-22T17:56:50.089Z,12.78
2019-03-22T17:59:27.053Z,13.03
2019-03-22T18:02:03.102Z,13.25
2019-03-22T18:04:39.649Z,12.40
2019-03-22T18:07:19.640Z,12.07
2019-03-22T18:09:55.008Z,13.45
2019-03-22T18:12:31.686Z,13.05
2019-03-22T18:15:06.899Z,12.55
2019-03-22T18:17:43.305Z,13.50
2019-03-22T18:20:19.524Z,13.15
2019-03-22T18:22:56.840Z,13.25
2019-03-22T18:25:32.758Z,13.62
2019-03-22T18:28:10.388Z,13.70
2019-03-22T18:30:51.734Z,12.60
2019-03-22T18:33:35.362Z,13.40
2019-03-22T18:36:23.625Z,13.55
2019-03-22T18:39:02.264Z,13.18
2019-03-22T18:41:39.628Z,12.98
2019-03-22T18:44:23.046Z,13.93
2019-03-22T18:47:12.802Z,12.93
2019-03-22T18:49:51.027Z,13.53
2019-03-22T18:52:26.497Z,13.70
2019-03-22T18:55:04.451Z,13.95
2019-03-22T18:57:39.905Z,14.65
2019-03-22T19:00:16.779Z,13.58
2019-03-22T19:02:52.024Z,14.05
2019-03-22T19:05:30.079Z,14.38
2019-03-22T19:08:06.224Z,13.27
2019-03-22T19:10:49.761Z,13.83
2019-03-22T19:13:31.082Z,14.00
2019-03-22T19:16:08.623Z,13.83
2019-03-22T19:18:43.681Z,14.18
2019-03-22T19:21:20.758Z,14.43
2019-03-22T19:23:56.957Z,14.07
2019-03-22T19:26:33.093Z,14.17
2019-03-22T19:29:08.840Z,13.97
2019-03-22T19:31:46.759Z,14.40
2019-03-22T19:34:22.224Z,14.43
2019-03-22T19:37:01.944Z,14.13
2019-03-22T19:39:38.320Z,14.70
2019-03-22T19:42:13.760Z,14.15
2019-03-22T19:44:48.829Z,14.77
2019-03-22T19:47:34.586Z,15.30
2019-03-22T19:50:15.047Z,14.57
2019-03-22T19:52:58.351Z,14.80
2019-03-22T19:55:36.098Z,14.33
2019-03-22T19:58:14.067Z,14.63
2019-03-22T20:00:51.347Z,15.33
2019-03-22T20:03:50.590Z,15.15
2019-03-22T20:06:37.745Z,14.55
2019-03-22T20:09:18.911Z,15.30
2019-03-22T20:12:15.455Z,14.78
2019-03-22T20:14:58.563Z,13.85
2019-03-22T20:17:35.063Z,15.60
2019-03-22T20:20:30.495Z,16.45
2019-03-22T20:23:08.502Z,15.43
2019-03-22T20:25:43.899Z,14.33
2019-03-22T20:28:20.977Z,14.70
2019-03-22T20:30:58.887Z,14.60
2019-03-22T20:33:34.095Z,15.75
2019-03-22T20:36:17.816Z,15.00
2019-03-22T20:38:53.050Z,15.03
2019-03-22T20:41:30.346Z,15.13
2019-03-22T20:44:07.508Z,14.87
2019-03-22T20:46:49.348Z,14.80
2019-03-22T20:49:25.706Z,14.35
2019-03-22T20:52:03.582Z,14.63
2019-03-22T20:55:07.785Z,14.10
2019-03-22T20:58:03.013Z,14.63
2019-03-22T21:00:41.126Z,14.03
2019-03-22T21:03:23.684Z,14.28
2019-03-22T21:06:00.310Z,15.48
2019-03-22T21:08:36.344Z,13.57
2019-03-22T21:11:11.503Z,14.45
2019-03-22T21:13:49.920Z,15.00
2019-03-22T21:16:32.843Z,13.78
2019-03-22T21:19:08.974Z,14.10
2019-03-22T21:21:55.658Z,13.98
2019-03-22T21:24:39.482Z,13.90
2019-03-22T21:27:28.733Z,13.35
2019-03-22T21:30:10.259Z,14.33
2019-03-22T21:32:53.696Z,13.30
2019-03-22T21:35:36.895Z,14.67
2019-03-22T21:38:10.934Z,14.27
2019-03-22T21:40:48.962Z,13.18
2019-03-22T21:43:26.849Z,14.00
2019-03-22T21:46:08.380Z,14.20
2019-03-22T21:48:43.582Z,13.95
2019-03-22T21:51:25.199Z,14.20
2019-03-22T21:54:00.306Z,13.30
2019-03-22T21:56:37.154Z,13.28
2019-03-22T21:59:14.344Z,13.28
2019-03-22T22:01:51.877Z,13.30
2019-03-22T22:04:28.316Z,13.18
2019-03-22T22:07:04.509Z,14.60
2019-03-22T22:09:44.660Z,14.03
2019-03-22T22:12:29.790Z,13.28
2019-03-22T22:15:12.946Z,12.83
2019-03-22T22:17:50.048Z,13.60
2019-03-22T22:20:30.157Z,14.63
2019-03-22T22:23:11.039Z,13.60
2019-03-22T22:25:47.214Z,13.53
2019-03-22T22:28:22.109Z,13.88
2019-03-22T22:30:58.053Z,14.03
2019-03-22T22:33:34.370Z,13.53
2019-03-22T22:36:10.533Z,13.53
2019-03-22T22:38:47.908Z,13.18
2019-03-22T22:41:23.233Z,13.25
2019-03-22T22:43:58.731Z,13.95
2019-03-22T22:46:33.948Z,13.83
2019-03-22T22:49:10.436Z,12.68
2019-03-22T22:51:46.439Z,13.08
2019-03-22T22:54:22.842Z,13.22
2019-03-22T22:56:58.089Z,13.05
2019-03-22T22:59:32.976Z,13.20
2019-03-22T23:02:09.412Z,14.47
2019-03-22T23:04:44.750Z,14.00
2019-03-22T23:07:20.809Z,14.43
2019-03-22T23:09:57.674Z,13.58
2019-03-22T23:12:34.152Z,13.67
2019-03-22T23:15:10.343Z,13.43
2019-03-22T23:17:46.205Z,13.40
2019-03-22T23:20:21.310Z,14.18
2019-03-22T23:22:58.037Z,13.60
2019-03-22T23:25:33.836Z,13.60
2019-03-22T23:28:09.206Z,13.30
2019-03-22T23:30:45.005Z,12.78
2019-03-22T23:33:21.304Z,13.53
2019-03-22T23:35:56.664Z,13.62
2019-03-22T23:38:34.694Z,13.50
2019-03-22T23:41:11.409Z,13.72
2019-03-22T23:43:47.036Z,13.75
2019-03-22T23:46:24.793Z,13.20
2019-03-22T23:49:00.919Z,13.10
2019-03-22T23:51:39.285Z,12.47
2019-03-22T23:54:16.692Z,12.43
2019-03-22T23:56:51.995Z,12.80
2019-03-22T23:59:28.281Z,13.40
